Time;durP1;ratioP1;P1;durP2;ratioP2;P2;SDS_P1;SDS_P2;PMS_P1;PMS_P2;Temp;Humidity;BMP_temperature;BMP_pressure;BME280_temperature;BME280_humidity;BME280_pressure;Samples;Min_cycle;Max_cycle;Signal;HPM_P1;HPM_P2
2023/08/08 00:01:23;;;;;;;2.47;1.02;;;15.20;99.90;;;;;;4894816;29;20074;-79
2023/08/08 00:03:49;;;;;;;3.45;1.10;;;15.20;99.90;;;;;;4885274;29;20058;-79
2023/08/08 00:06:16;;;;;;;2.30;1.02;;;15.20;99.90;;;;;;4892068;29;20057;-79
2023/08/08 00:08:43;;;;;;;1.88;0.93;;;15.20;99.90;;;;;;4885838;29;20085;-79
2023/08/08 00:11:10;;;;;;;1.50;0.80;;;15.10;99.90;;;;;;4888343;29;20113;-79
2023/08/08 00:13:36;;;;;;;3.45;1.00;;;15.10;99.90;;;;;;4908630;29;20053;-79
2023/08/08 00:16:04;;;;;;;2.03;1.20;;;15.10;99.90;;;;;;4895258;29;20098;-78
2023/08/08 00:18:31;;;;;;;2.75;1.20;;;15.10;99.90;;;;;;4885390;29;20068;-79
2023/08/08 00:20:58;;;;;;;1.77;0.93;;;15.00;99.90;;;;;;4906512;29;20489;-79
2023/08/08 00:23:25;;;;;;;1.42;1.10;;;15.00;99.90;;;;;;4901789;29;20560;-78
2023/08/08 00:25:52;;;;;;;2.50;0.88;;;15.00;99.90;;;;;;4895385;29;20124;-78
2023/08/08 00:28:19;;;;;;;2.60;1.17;;;15.00;99.90;;;;;;4895027;29;20470;-79
2023/08/08 00:30:45;;;;;;;3.17;1.20;;;15.00;99.90;;;;;;4898594;29;20504;-79
2023/08/08 00:33:12;;;;;;;3.25;0.80;;;14.90;99.90;;;;;;4886755;29;20053;-78
2023/08/08 00:35:39;;;;;;;3.08;1.02;;;14.90;99.90;;;;;;4905070;29;20052;-79
2023/08/08 00:38:06;;;;;;;2.20;1.10;;;14.90;99.90;;;;;;4906043;29;20056;-78
2023/08/08 00:40:32;;;;;;;2.55;1.00;;;14.80;99.90;;;;;;4887913;29;20057;-78
2023/08/08 00:42:59;;;;;;;2.53;0.90;;;14.80;99.90;;;;;;4910057;29;20052;-78
2023/08/08 00:45:27;;;;;;;2.35;0.82;;;14.70;99.90;;;;;;4896681;29;20053;-77
2023/08/08 00:47:54;;;;;;;4.75;1.20;;;14.70;99.90;;;;;;4897330;29;20121;-78
2023/08/08 00:50:21;;;;;;;2.75;1.15;;;14.60;99.90;;;;;;4890796;29;20052;-78
2023/08/08 00:52:49;;;;;;;1.30;1.10;;;14.60;99.90;;;;;;4891973;29;20112;-78
2023/08/08 00:55:16;;;;;;;1.45;0.88;;;14.60;99.90;;;;;;4891074;29;20063;-78
2023/08/08 00:57:43;;;;;;;1.90;1.17;;;14.60;99.90;;;;;;4890682;29;21466;-79
2023/08/08 01:00:10;;;;;;;2.65;1.00;;;14.60;99.90;;;;;;4891974;29;20112;-79
2023/08/08 01:02:38;;;;;;;1.80;1.25;;;14.50;99.90;;;;;;4886897;29;20728;-78
2023/08/08 01:05:06;;;;;;;3.10;1.30;;;14.50;99.90;;;;;;4887342;29;20112;-78
2023/08/08 01:07:43;;;;;;;3.67;1.02;;;14.50;99.90;;;;;;4888597;29;20057;-77
2023/08/08 01:10:15;;;;;;;3.22;1.30;;;14.50;99.90;;;;;;4885951;29;20139;-79
2023/08/08 01:12:47;;;;;;;2.67;1.20;;;14.40;99.90;;;;;;4887202;29;20053;-78
2023/08/08 01:15:15;;;;;;;2.67;1.00;;;14.40;99.90;;;;;;4892836;29;20057;-79
2023/08/08 01:17:45;;;;;;;1.85;1.00;;;14.40;99.90;;;;;;4897357;29;20059;-79
2023/08/08 01:20:17;;;;;;;3.50;1.25;;;14.30;99.90;;;;;;4887125;29;20092;-79
2023/08/08 01:23:16;;;;;;;2.10;0.85;;;14.30;99.90;;;;;;4888450;29;20116;-78
2023/08/08 01:25:44;;;;;;;4.07;1.85;;;14.30;99.90;;;;;;4889470;29;20049;-78
2023/08/08 01:28:11;;;;;;;2.22;1.13;;;14.30;99.90;;;;;;4895055;29;20056;-79
2023/08/08 01:30:38;;;;;;;7.47;1.55;;;14.20;99.90;;;;;;4890540;29;20109;-79
2023/08/08 01:33:06;;;;;;;2.20;1.00;;;14.20;99.90;;;;;;4894853;29;20081;-79
2023/08/08 01:35:41;;;;;;;1.67;1.10;;;14.20;99.90;;;;;;4889893;29;20056;-79
2023/08/08 01:38:10;;;;;;;1.90;1.55;;;14.10;99.90;;;;;;4902569;29;20561;-79
2023/08/08 01:40:39;;;;;;;3.85;1.38;;;14.10;99.90;;;;;;4892933;29;20048;-78
2023/08/08 01:43:07;;;;;;;1.50;0.90;;;14.10;99.90;;;;;;4886842;29;20065;-79
2023/08/08 01:45:34;;;;;;;5.85;1.77;;;14.10;99.90;;;;;;4890954;29;20060;-79
2023/08/08 01:48:07;;;;;;;1.77;1.15;;;14.10;99.90;;;;;;4882771;29;20052;-79
2023/08/08 01:50:34;;;;;;;2.80;0.82;;;14.00;99.90;;;;;;4888844;29;20082;-79
2023/08/08 01:53:01;;;;;;;2.67;0.95;;;14.00;99.90;;;;;;4890513;29;20500;-79
2023/08/08 01:55:27;;;;;;;1.65;1.02;;;14.00;99.90;;;;;;4891868;29;20473;-79
2023/08/08 01:57:54;;;;;;;2.65;1.60;;;14.00;99.90;;;;;;4886006;29;20056;-79
2023/08/08 02:00:21;;;;;;;3.63;1.13;;;14.00;99.90;;;;;;4891098;29;20057;-78
2023/08/08 02:02:48;;;;;;;2.08;1.23;;;14.00;99.90;;;;;;4882075;29;20095;-78
2023/08/08 02:05:15;;;;;;;1.58;1.00;;;13.90;99.90;;;;;;4887715;29;20770;-79
2023/08/08 02:07:42;;;;;;;2.65;1.17;;;13.90;99.90;;;;;;4891212;29;20049;-79
2023/08/08 02:10:09;;;;;;;2.55;1.38;;;13.90;99.90;;;;;;4894217;29;20065;-78
2023/08/08 02:12:36;;;;;;;3.15;1.00;;;13.80;99.90;;;;;;4883512;29;20056;-78
2023/08/08 02:15:04;;;;;;;5.25;1.33;;;13.80;99.90;;;;;;4895402;29;20053;-78
2023/08/08 02:17:31;;;;;;;1.63;1.10;;;13.80;99.90;;;;;;4881700;29;20501;-78
2023/08/08 02:19:57;;;;;;;3.33;1.30;;;13.80;99.90;;;;;;4889688;29;20060;-78
2023/08/08 02:22:25;;;;;;;2.10;1.13;;;13.80;99.90;;;;;;4892458;29;20053;-79
2023/08/08 02:24:52;;;;;;;2.10;1.30;;;13.70;99.90;;;;;;4897574;29;20093;-78
2023/08/08 02:27:18;;;;;;;2.70;1.13;;;13.70;99.90;;;;;;4898546;29;20565;-78
2023/08/08 02:29:45;;;;;;;1.75;0.90;;;13.70;99.90;;;;;;4889411;29;20053;-79
2023/08/08 02:32:13;;;;;;;1.63;1.10;;;13.60;99.90;;;;;;4884001;29;20053;-78
2023/08/08 02:34:40;;;;;;;4.20;1.30;;;13.60;99.90;;;;;;4887976;29;20056;-79
2023/08/08 02:37:06;;;;;;;2.15;1.20;;;13.60;99.90;;;;;;4891707;29;20049;-79
2023/08/08 02:39:33;;;;;;;1.77;1.20;;;13.50;99.90;;;;;;4893230;29;20049;-78
2023/08/08 02:42:00;;;;;;;2.22;1.00;;;13.60;99.90;;;;;;4882785;29;20093;-79
2023/08/08 02:44:28;;;;;;;6.47;1.00;;;13.50;99.90;;;;;;4889440;29;20053;-79
2023/08/08 02:46:54;;;;;;;3.90;1.00;;;13.60;99.90;;;;;;4886265;29;20078;-78
2023/08/08 02:49:21;;;;;;;2.42;1.30;;;13.60;99.90;;;;;;4886976;29;20064;-79
2023/08/08 02:51:48;;;;;;;3.13;1.05;;;13.50;99.90;;;;;;4889335;29;20053;-78
2023/08/08 02:54:15;;;;;;;3.28;1.20;;;13.50;99.90;;;;;;4891255;29;20462;-78
2023/08/08 02:56:41;;;;;;;2.13;1.05;;;13.50;99.90;;;;;;4881418;29;20053;-79
2023/08/08 02:59:08;;;;;;;3.20;1.02;;;13.50;99.90;;;;;;4887454;29;20073;-78
2023/08/08 03:01:39;;;;;;;2.85;1.23;;;13.50;99.90;;;;;;4885081;29;20045;-78
2023/08/08 03:04:06;;;;;;;1.75;1.20;;;13.50;99.90;;;;;;4884128;29;20052;-79
2023/08/08 03:06:33;;;;;;;1.45;1.00;;;13.40;99.90;;;;;;4888363;29;20072;-79
2023/08/08 03:09:00;;;;;;;1.23;1.13;;;13.40;99.90;;;;;;4895435;29;20504;-79
2023/08/08 03:11:26;;;;;;;2.38;1.17;;;13.40;99.90;;;;;;4880479;29;20049;-78
2023/08/08 03:13:53;;;;;;;1.70;1.17;;;13.40;99.90;;;;;;4887520;29;20513;-78
2023/08/08 03:16:20;;;;;;;4.45;1.00;;;13.40;99.90;;;;;;4903159;29;20101;-78
2023/08/08 03:18:47;;;;;;;2.92;0.90;;;13.40;99.90;;;;;;4883008;29;20061;-79
2023/08/08 03:21:13;;;;;;;2.30;1.10;;;13.40;99.90;;;;;;4889102;29;20040;-78
2023/08/08 03:23:40;;;;;;;3.17;0.95;;;13.30;99.90;;;;;;4900269;29;20055;-79
2023/08/08 03:26:07;;;;;;;3.90;1.10;;;13.30;99.90;;;;;;4897969;29;20064;-79
2023/08/08 03:28:34;;;;;;;4.50;1.08;;;13.30;99.90;;;;;;4888593;29;20053;-78
2023/08/08 03:31:02;;;;;;;1.85;0.90;;;13.30;99.90;;;;;;4890811;29;20052;-78
2023/08/08 03:33:29;;;;;;;2.20;1.00;;;13.20;99.90;;;;;;4891947;29;20056;-78
2023/08/08 03:35:55;;;;;;;1.40;1.17;;;13.30;99.90;;;;;;4891023;29;20101;-78
2023/08/08 03:38:22;;;;;;;1.55;0.82;;;13.20;99.90;;;;;;4891697;29;20049;-78
2023/08/08 03:40:50;;;;;;;3.25;0.90;;;13.20;99.90;;;;;;4884484;29;20127;-78
2023/08/08 03:43:17;;;;;;;3.22;1.35;;;13.20;99.90;;;;;;4888042;29;20049;-78
2023/08/08 03:45:45;;;;;;;0.93;0.80;;;13.20;99.90;;;;;;4889686;29;20060;-78
2023/08/08 03:48:12;;;;;;;3.83;1.17;;;13.20;99.90;;;;;;4895955;29;20060;-79
2023/08/08 03:50:39;;;;;;;1.30;1.00;;;13.10;99.90;;;;;;4899556;29;20063;-78
2023/08/08 03:53:05;;;;;;;2.65;1.00;;;13.10;99.90;;;;;;4892386;29;20474;-78
2023/08/08 03:55:33;;;;;;;1.40;0.82;;;13.10;99.90;;;;;;4899325;29;20104;-78
2023/08/08 03:57:59;;;;;;;3.03;1.38;;;13.10;99.90;;;;;;4886741;29;20104;-79
2023/08/08 04:00:26;;;;;;;2.33;1.10;;;13.10;99.90;;;;;;4891081;29;20049;-77
2023/08/08 04:02:53;;;;;;;1.95;1.20;;;13.10;99.90;;;;;;4911102;29;20096;-78
2023/08/08 04:05:20;;;;;;;3.03;0.93;;;13.10;99.90;;;;;;4884414;29;20080;-78
2023/08/08 04:07:47;;;;;;;5.00;1.05;;;13.10;99.90;;;;;;4890193;29;20057;-78
2023/08/08 04:10:13;;;;;;;2.75;1.23;;;13.10;99.90;;;;;;4896006;29;20109;-78
2023/08/08 04:12:40;;;;;;;1.85;0.93;;;13.10;99.90;;;;;;4883909;29;20429;-78
2023/08/08 04:15:07;;;;;;;2.65;1.50;;;13.10;99.90;;;;;;4892071;29;20049;-79
2023/08/08 04:17:34;;;;;;;1.42;0.95;;;13.10;99.90;;;;;;4896240;29;20080;-78
2023/08/08 04:20:01;;;;;;;2.47;1.23;;;13.10;99.90;;;;;;4887348;29;20061;-78
2023/08/08 04:22:28;;;;;;;1.75;1.20;;;13.10;99.90;;;;;;4890527;29;20048;-78
2023/08/08 04:24:55;;;;;;;1.67;1.00;;;13.10;99.90;;;;;;4902936;29;20060;-78
2023/08/08 04:27:21;;;;;;;3.45;1.35;;;13.10;99.90;;;;;;4882531;29;20049;-79
2023/08/08 04:29:48;;;;;;;2.97;1.60;;;13.10;99.90;;;;;;4892656;29;20053;-78
2023/08/08 04:32:15;;;;;;;1.70;1.10;;;13.10;99.90;;;;;;4894419;29;20052;-78
2023/08/08 04:34:42;;;;;;;3.45;1.30;;;13.10;99.90;;;;;;4887580;29;20089;-78
2023/08/08 04:37:08;;;;;;;1.85;1.10;;;13.10;99.90;;;;;;4887509;29;20049;-78
2023/08/08 04:39:35;;;;;;;4.25;1.42;;;13.10;99.90;;;;;;4889052;29;20049;-78
2023/08/08 04:42:02;;;;;;;2.97;1.30;;;13.10;99.90;;;;;;4881672;29;20045;-77
2023/08/08 04:44:29;;;;;;;2.28;1.33;;;13.10;99.90;;;;;;4891381;29;20049;-78
2023/08/08 04:46:57;;;;;;;1.45;1.05;;;13.10;99.90;;;;;;4892211;29;20121;-78
2023/08/08 04:49:23;;;;;;;3.22;0.90;;;13.10;99.90;;;;;;4898436;29;20108;-78
2023/08/08 04:51:50;;;;;;;4.47;1.05;;;13.10;99.90;;;;;;4888928;29;20577;-78
2023/08/08 04:54:17;;;;;;;2.25;0.98;;;13.10;99.90;;;;;;4887675;29;20120;-78
2023/08/08 04:56:44;;;;;;;3.17;1.30;;;13.10;99.90;;;;;;4899172;29;20098;-77
2023/08/08 04:59:10;;;;;;;3.55;1.23;;;13.10;99.90;;;;;;4895016;29;20049;-78
2023/08/08 05:01:37;;;;;;;2.38;1.20;;;13.20;99.90;;;;;;4890766;29;20104;-78
2023/08/08 05:04:04;;;;;;;5.45;1.40;;;13.20;99.90;;;;;;4888158;29;20056;-78
2023/08/08 05:06:31;;;;;;;4.72;1.20;;;13.30;99.90;;;;;;4885494;29;20065;-78
2023/08/08 05:08:58;;;;;;;2.95;1.00;;;13.40;99.90;;;;;;4888904;29;20052;-79
2023/08/08 05:11:24;;;;;;;3.97;1.15;;;13.40;99.90;;;;;;4898032;29;20053;-79
2023/08/08 05:13:51;;;;;;;2.30;1.35;;;13.50;99.90;;;;;;4895574;29;20140;-79
2023/08/08 05:16:18;;;;;;;1.50;1.00;;;13.60;99.90;;;;;;4892195;29;20088;-79
2023/08/08 05:18:45;;;;;;;4.50;1.70;;;13.70;99.90;;;;;;4888377;29;20417;-79
2023/08/08 05:21:12;;;;;;;1.52;1.17;;;13.80;99.90;;;;;;4885298;29;20069;-79
2023/08/08 05:23:39;;;;;;;2.25;1.17;;;13.90;99.90;;;;;;4889673;29;20056;-79
2023/08/08 05:26:06;;;;;;;1.20;1.00;;;14.00;99.90;;;;;;4884059;29;20056;-79
2023/08/08 05:28:32;;;;;;;2.60;1.80;;;14.10;99.90;;;;;;4884311;29;20053;-79
2023/08/08 05:30:59;;;;;;;2.60;1.45;;;14.10;99.90;;;;;;4890899;29;20056;-78
2023/08/08 05:33:26;;;;;;;1.40;1.10;;;14.20;99.90;;;;;;4888982;29;20080;-78
2023/08/08 05:35:53;;;;;;;4.07;1.10;;;14.20;99.90;;;;;;4883662;29;20049;-79
2023/08/08 05:38:19;;;;;;;3.78;0.93;;;14.30;99.90;;;;;;4911446;29;20049;-78
2023/08/08 05:40:46;;;;;;;1.73;1.13;;;14.30;99.90;;;;;;4886440;29;20049;-79
2023/08/08 05:43:17;;;;;;;2.80;1.00;;;14.30;99.90;;;;;;4908213;29;20056;-79
2023/08/08 05:45:46;;;;;;;;;;;14.40;99.90;;;;;;4892462;29;20056;-79
2023/08/08 05:48:13;;;;;;;4.57;1.30;;;14.40;99.90;;;;;;4904644;29;19928;-79
2023/08/08 05:50:41;;;;;;;4.65;1.52;;;14.50;99.90;;;;;;4898471;29;20301;-78
2023/08/08 05:53:07;;;;;;;4.07;1.20;;;14.50;99.90;;;;;;4888652;29;20044;-79
2023/08/08 05:55:34;;;;;;;3.35;1.27;;;14.50;99.90;;;;;;4897846;29;20128;-79
2023/08/08 05:58:01;;;;;;;3.25;1.02;;;14.60;99.90;;;;;;4891560;29;20052;-78
2023/08/08 06:00:28;;;;;;;1.75;1.05;;;14.60;99.90;;;;;;4891401;29;20053;-79
2023/08/08 06:02:55;;;;;;;2.78;0.90;;;14.70;99.90;;;;;;4894635;29;20078;-78
2023/08/08 06:05:23;;;;;;;2.50;0.90;;;14.70;99.90;;;;;;4883285;29;20045;-79
2023/08/08 06:07:50;;;;;;;3.47;1.38;;;14.80;99.90;;;;;;4887680;29;20095;-78
2023/08/08 06:10:17;;;;;;;2.30;1.10;;;14.80;99.90;;;;;;4890191;29;20085;-79
2023/08/08 06:12:43;;;;;;;1.55;1.10;;;14.90;99.90;;;;;;4893654;29;20052;-78
2023/08/08 06:15:10;;;;;;;7.05;1.80;;;14.90;99.90;;;;;;4886726;29;20105;-78
2023/08/08 06:17:37;;;;;;;2.05;0.73;;;15.00;99.90;;;;;;4889396;29;20049;-78
2023/08/08 06:20:06;;;;;;;5.22;1.13;;;15.00;99.90;;;;;;4882455;29;20049;-78
2023/08/08 06:22:33;;;;;;;3.28;0.90;;;15.00;99.90;;;;;;4890246;29;20056;-78
2023/08/08 06:25:00;;;;;;;1.15;0.85;;;15.10;99.90;;;;;;4905697;29;20103;-78
2023/08/08 06:27:27;;;;;;;4.70;1.02;;;15.10;99.90;;;;;;4889031;29;20139;-79
2023/08/08 06:29:53;;;;;;;4.22;0.60;;;15.20;99.90;;;;;;4884834;29;20052;-79
2023/08/08 06:32:20;;;;;;;1.73;0.75;;;15.20;99.90;;;;;;4889374;29;20060;-78
2023/08/08 06:34:47;;;;;;;5.47;1.10;;;15.30;99.90;;;;;;4882143;29;20041;-79
2023/08/08 06:37:14;;;;;;;1.55;0.93;;;15.40;99.90;;;;;;4889760;29;20040;-78
2023/08/08 06:39:41;;;;;;;3.72;0.80;;;15.40;99.90;;;;;;4893247;29;20108;-79
2023/08/08 06:42:08;;;;;;;1.80;0.90;;;15.50;99.90;;;;;;4890402;29;20053;-79
2023/08/08 06:44:42;;;;;;;2.78;0.85;;;15.50;99.90;;;;;;4894681;29;20068;-78
2023/08/08 06:47:09;;;;;;;1.83;0.82;;;15.60;99.90;;;;;;4889163;29;20049;-79
2023/08/08 06:49:35;;;;;;;1.33;0.90;;;15.70;99.90;;;;;;4887302;29;20055;-78
2023/08/08 06:52:03;;;;;;;3.00;1.13;;;15.70;99.90;;;;;;4900515;29;20160;-79
2023/08/08 06:54:29;;;;;;;1.60;0.80;;;15.90;99.90;;;;;;4895063;29;20480;-78
2023/08/08 06:56:57;;;;;;;1.95;0.85;;;16.00;99.90;;;;;;4894437;29;20053;-79
2023/08/08 06:59:26;;;;;;;1.20;0.75;;;16.00;99.90;;;;;;4886632;29;20128;-79
2023/08/08 07:04:26;;;;;;;0.70;0.63;;;16.40;99.90;;;;;;4882562;29;20061;-80
2023/08/08 07:06:53;;;;;;;2.35;0.85;;;16.60;99.90;;;;;;4886415;29;20048;-81
2023/08/08 07:09:19;;;;;;;1.85;0.70;;;16.70;99.90;;;;;;4886591;29;20420;-81
2023/08/08 07:11:46;;;;;;;3.38;0.70;;;16.90;99.90;;;;;;4886107;29;20519;-80
2023/08/08 07:14:13;;;;;;;2.38;0.80;;;17.10;99.90;;;;;;4885643;29;20049;-81
2023/08/08 07:16:40;;;;;;;3.45;0.93;;;17.20;99.90;;;;;;4884204;29;20044;-82
2023/08/08 07:19:06;;;;;;;3.92;1.13;;;17.40;99.90;;;;;;4883902;29;20085;-82
2023/08/08 07:21:33;;;;;;;1.27;0.88;;;17.50;99.90;;;;;;4872249;29;20116;-82
2023/08/08 07:24:00;;;;;;;2.75;1.10;;;17.60;99.90;;;;;;4881171;29;20465;-80
2023/08/08 07:26:27;;;;;;;3.80;1.30;;;17.70;99.90;;;;;;4884190;29;20124;-80
2023/08/08 07:28:53;;;;;;;1.75;0.88;;;17.80;99.90;;;;;;4882408;29;20112;-80
2023/08/08 07:31:20;;;;;;;2.67;0.65;;;17.80;99.90;;;;;;4880154;29;20120;-81
2023/08/08 07:33:47;;;;;;;2.35;0.70;;;17.80;99.90;;;;;;4878513;29;20115;-82
2023/08/08 07:36:14;;;;;;;2.92;0.70;;;17.80;99.90;;;;;;4879520;29;20105;-81
2023/08/08 07:38:40;;;;;;;1.48;0.70;;;17.90;99.90;;;;;;4874621;29;20045;-82
2023/08/08 07:41:07;;;;;;;2.05;0.85;;;17.90;99.90;;;;;;4883900;29;20132;-82
2023/08/08 07:43:34;;;;;;;2.50;0.60;;;17.90;99.90;;;;;;4878201;29;20422;-81
2023/08/08 07:46:01;;;;;;;1.00;0.50;;;17.90;99.90;;;;;;4878220;29;20054;-82
2023/08/08 07:48:27;;;;;;;1.13;0.80;;;17.90;99.90;;;;;;4883576;29;20044;-82
2023/08/08 07:50:54;;;;;;;0.93;0.70;;;17.90;99.90;;;;;;4883432;29;20060;-81
2023/08/08 07:53:21;;;;;;;0.70;0.60;;;17.90;99.90;;;;;;4884235;29;20045;-81
2023/08/08 07:55:48;;;;;;;1.02;0.63;;;17.80;99.90;;;;;;4886385;29;20045;-81
2023/08/08 07:58:14;;;;;;;1.52;0.70;;;17.80;99.90;;;;;;4880634;29;20053;-80
2023/08/08 08:00:41;;;;;;;1.38;0.95;;;17.80;99.90;;;;;;4884296;29;20055;-80
2023/08/08 08:03:08;;;;;;;2.20;0.80;;;17.80;99.90;;;;;;4882388;29;20052;-82
2023/08/08 08:05:36;;;;;;;1.10;0.60;;;17.80;99.90;;;;;;4884873;29;20095;-82
2023/08/08 08:08:03;;;;;;;1.55;0.95;;;17.80;99.90;;;;;;4882886;29;20065;-82
2023/08/08 08:10:30;;;;;;;2.25;0.70;;;17.80;99.90;;;;;;4880027;29;20078;-81
2023/08/08 08:12:58;;;;;;;1.73;0.80;;;17.80;99.90;;;;;;4896009;29;20057;-80
2023/08/08 08:15:26;;;;;;;1.02;0.73;;;17.80;99.90;;;;;;4881495;29;20049;-82
2023/08/08 08:17:52;;;;;;;2.70;0.70;;;17.80;99.90;;;;;;4879747;29;20060;-82
2023/08/08 08:20:19;;;;;;;0.82;0.70;;;17.80;99.90;;;;;;4897553;29;20105;-81
2023/08/08 08:22:46;;;;;;;1.80;0.70;;;17.80;99.90;;;;;;4879160;29;20053;-81
2023/08/08 08:25:14;;;;;;;0.98;0.63;;;17.80;99.90;;;;;;4898023;29;20060;-81
2023/08/08 08:27:41;;;;;;;0.80;0.70;;;17.80;99.90;;;;;;4882121;29;20045;-81
2023/08/08 08:30:11;;;;;;;3.88;0.82;;;17.90;99.90;;;;;;4881547;29;20067;-81
2023/08/08 08:32:40;;;;;;;2.03;0.88;;;17.90;99.90;;;;;;4880675;29;20109;-81
2023/08/08 08:35:07;;;;;;;1.23;0.68;;;17.90;99.90;;;;;;4880805;29;20051;-80
2023/08/08 08:37:34;;;;;;;0.80;0.73;;;17.90;99.90;;;;;;4882427;29;20056;-81
2023/08/08 08:40:04;;;;;;;2.75;0.70;;;18.00;99.90;;;;;;4882348;29;20061;-80
2023/08/08 08:42:33;;;;;;;1.70;0.63;;;18.00;99.90;;;;;;4882757;29;20048;-81
2023/08/08 08:45:03;;;;;;;1.48;0.65;;;18.10;99.90;;;;;;4879992;29;20117;-81
2023/08/08 08:47:31;;;;;;;1.63;0.82;;;18.20;99.90;;;;;;4897770;29;20262;-81
2023/08/08 08:49:58;;;;;;;1.00;0.60;;;18.30;99.90;;;;;;4882273;29;20084;-85
2023/08/08 08:52:25;;;;;;;0.70;0.60;;;18.40;99.90;;;;;;4877057;29;20129;-82
2023/08/08 08:54:53;;;;;;;3.35;0.80;;;18.50;99.90;;;;;;4880578;29;20045;-82
2023/08/08 08:57:23;;;;;;;4.65;0.80;;;18.60;99.90;;;;;;4897512;29;20049;-83
2023/08/08 08:59:51;;;;;;;0.60;0.60;;;18.80;99.90;;;;;;4900373;29;20049;-83
2023/08/08 09:02:18;;;;;;;0.55;0.55;;;18.90;99.90;;;;;;4899488;29;20057;-82
2023/08/08 09:04:45;;;;;;;2.35;0.50;;;19.10;99.90;;;;;;4900788;29;20105;-82
2023/08/08 09:07:14;;;;;;;2.58;0.68;;;19.20;99.90;;;;;;4883460;29;20113;-81
2023/08/08 09:09:43;;;;;;;1.67;0.60;;;19.40;99.90;;;;;;4882966;29;20053;-82
2023/08/08 09:12:11;;;;;;;1.40;0.73;;;19.50;99.90;;;;;;4887102;29;20053;-82
2023/08/08 09:14:41;;;;;;;2.45;0.70;;;19.70;99.90;;;;;;4888006;29;20041;-82
2023/08/08 09:17:13;;;;;;;2.28;0.80;;;19.70;99.90;;;;;;4879725;29;20052;-82
2023/08/08 09:19:46;;;;;;;1.88;0.80;;;19.80;99.90;;;;;;4884671;29;20056;-81
2023/08/08 09:22:14;;;;;;;0.77;0.63;;;19.90;99.90;;;;;;4880367;29;20049;-82
2023/08/08 09:24:41;;;;;;;1.35;0.40;;;19.90;99.90;;;;;;4881163;29;20053;-82
2023/08/08 09:27:09;;;;;;;0.63;0.60;;;19.90;99.90;;;;;;4881921;29;20470;-81
2023/08/08 09:29:37;;;;;;;2.60;1.00;;;19.90;99.90;;;;;;4874339;29;20053;-82
2023/08/08 09:32:05;;;;;;;3.13;0.70;;;19.90;99.90;;;;;;4878127;29;20074;-81
2023/08/08 09:34:32;;;;;;;2.65;0.73;;;19.90;99.90;;;;;;4879679;29;20049;-82
2023/08/08 09:37:03;;;;;;;3.80;0.88;;;19.80;99.90;;;;;;4898094;29;20105;-81
2023/08/08 09:39:30;;;;;;;2.58;1.17;;;19.80;99.90;;;;;;4885929;29;20048;-82
2023/08/08 09:41:56;;;;;;;2.05;0.80;;;19.80;99.90;;;;;;4885264;29;20052;-82
2023/08/08 09:44:26;;;;;;;1.48;0.75;;;19.80;99.90;;;;;;4880457;29;20138;-81
2023/08/08 09:46:53;;;;;;;1.50;0.80;;;19.80;99.90;;;;;;4876663;29;20060;-82
2023/08/08 09:49:21;;;;;;;1.52;0.70;;;19.80;99.90;;;;;;4883538;29;20060;-81
2023/08/08 09:51:49;;;;;;;2.13;0.80;;;19.80;99.90;;;;;;4883051;29;20045;-81
2023/08/08 09:54:17;;;;;;;3.97;0.93;;;19.90;99.90;;;;;;4883147;29;20060;-82
2023/08/08 09:56:43;;;;;;;1.65;0.80;;;20.00;99.90;;;;;;4881276;29;20560;-81
2023/08/08 09:59:12;;;;;;;1.23;0.82;;;20.00;99.90;;;;;;4880599;29;20061;-81
2023/08/08 10:01:41;;;;;;;2.42;0.90;;;20.00;99.90;;;;;;4881784;29;20061;-81
2023/08/08 10:04:11;;;;;;;1.45;0.80;;;20.10;99.90;;;;;;4881524;29;20074;-79
2023/08/08 10:06:38;;;;;;;1.77;0.80;;;20.10;99.90;;;;;;4880575;29;20052;-82
2023/08/08 10:09:06;;;;;;;1.00;0.70;;;20.10;99.90;;;;;;4881643;29;20057;-80
2023/08/08 10:11:34;;;;;;;2.35;0.80;;;20.10;99.90;;;;;;4882292;29;20049;-81
2023/08/08 10:14:04;;;;;;;1.52;0.60;;;20.20;99.90;;;;;;4877608;29;20094;-82
2023/08/08 10:16:34;;;;;;;1.35;0.85;;;20.20;99.90;;;;;;4880361;29;20073;-81
2023/08/08 10:19:03;;;;;;;2.22;0.77;;;20.30;99.90;;;;;;4883138;29;20057;-82
2023/08/08 10:21:40;;;;;;;3.20;0.70;;;20.30;99.90;;;;;;4881117;29;20102;-82
2023/08/08 10:24:09;;;;;;;1.10;0.90;;;20.30;99.90;;;;;;4896227;29;20060;-81
2023/08/08 10:26:59;;;;;;;1.70;1.00;;;20.40;99.90;;;;;;4882784;29;20068;-82
2023/08/08 10:29:28;;;;;;;3.92;1.05;;;20.40;99.90;;;;;;4883373;29;20485;-82
2023/08/08 10:32:07;;;;;;;1.42;0.88;;;20.40;99.90;;;;;;4881365;29;20046;-82
2023/08/08 10:34:41;;;;;;;1.25;1.00;;;20.50;99.90;;;;;;4882705;29;20422;-82
2023/08/08 10:37:18;;;;;;;3.85;1.20;;;20.50;99.90;;;;;;4891779;29;20057;-81
2023/08/08 10:40:08;;;;;;;3.67;0.85;;;20.50;99.90;;;;;;4892671;29;20053;-82
2023/08/08 10:42:44;;;;;;;3.00;1.00;;;20.50;99.90;;;;;;4884584;29;20105;-82
2023/08/08 10:45:15;;;;;;;1.80;0.98;;;20.60;99.90;;;;;;4879480;29;20539;-81
2023/08/08 10:47:43;;;;;;;1.63;0.70;;;20.70;99.90;;;;;;4881708;29;20547;-82
2023/08/08 10:50:15;;;;;;;2.35;0.75;;;20.80;99.90;;;;;;4882361;29;20647;-81
2023/08/08 10:53:01;;;;;;;2.05;0.75;;;20.90;99.90;;;;;;4896088;29;20077;-82
2023/08/08 10:55:33;;;;;;;1.33;0.68;;;21.00;99.90;;;;;;4884020;29;20451;-82
2023/08/08 10:58:02;;;;;;;1.02;0.60;;;21.00;99.90;;;;;;4882822;29;20049;-81
2023/08/08 11:00:31;;;;;;;0.95;0.68;;;21.00;99.90;;;;;;4879591;29;20049;-81
2023/08/08 11:02:59;;;;;;;2.55;0.77;;;21.10;99.90;;;;;;4882507;29;20053;-81
2023/08/08 11:05:29;;;;;;;1.60;0.70;;;21.20;99.90;;;;;;4881171;29;20064;-82
2023/08/08 11:07:56;;;;;;;2.00;0.80;;;21.20;99.90;;;;;;4884497;29;20049;-82
2023/08/08 11:10:23;;;;;;;4.43;0.98;;;21.20;99.90;;;;;;4884648;29;20053;-83
2023/08/08 11:13:00;;;;;;;0.90;0.70;;;21.30;99.90;;;;;;4880440;29;20061;-82
2023/08/08 11:15:27;;;;;;;2.92;0.80;;;21.30;99.90;;;;;;4882818;29;20052;-83
2023/08/08 11:17:58;;;;;;;1.15;0.70;;;21.40;99.90;;;;;;4883988;29;20049;-82
2023/08/08 11:20:33;;;;;;;0.70;0.70;;;21.50;99.90;;;;;;4883529;29;20051;-82
2023/08/08 11:23:00;;;;;;;1.02;0.90;;;21.60;99.90;;;;;;4879666;29;20081;-82
2023/08/08 11:25:29;;;;;;;1.52;0.77;;;21.70;99.90;;;;;;4895800;29;20465;-82
2023/08/08 11:27:57;;;;;;;1.00;0.75;;;21.80;99.90;;;;;;4882860;29;20114;-82
2023/08/08 11:30:28;;;;;;;1.08;0.60;;;21.90;99.90;;;;;;4881788;29;20059;-82
2023/08/08 11:32:55;;;;;;;1.88;0.80;;;22.00;99.90;;;;;;4894577;29;20064;-79
2023/08/08 11:35:27;;;;;;;0.80;0.70;;;22.00;99.90;;;;;;4886406;29;20056;-80
2023/08/08 11:37:56;;;;;;;2.30;0.60;;;22.00;99.90;;;;;;4904398;29;20045;-80
2023/08/08 11:40:25;;;;;;;4.67;0.73;;;22.00;99.90;;;;;;4904635;29;20045;-81
2023/08/08 11:42:53;;;;;;;1.10;0.70;;;22.10;99.90;;;;;;4904352;29;20049;-81
2023/08/08 11:45:20;;;;;;;1.55;0.70;;;22.10;99.90;;;;;;4902530;29;20057;-80
2023/08/08 11:47:54;;;;;;;1.40;0.70;;;22.20;99.90;;;;;;4882334;29;20155;-81
2023/08/08 11:50:24;;;;;;;0.70;0.60;;;22.20;99.90;;;;;;4899277;29;20075;-81
2023/08/08 11:52:55;;;;;;;3.42;0.88;;;22.30;99.90;;;;;;4888243;29;20501;-82
2023/08/08 11:55:28;;;;;;;0.82;0.70;;;22.40;99.90;;;;;;4885022;29;20060;-81
2023/08/08 11:58:02;;;;;;;1.55;0.70;;;22.40;99.90;;;;;;4885390;29;20051;-81
2023/08/08 12:00:30;;;;;;;1.55;0.80;;;22.50;99.90;;;;;;4894975;29;20454;-81
2023/08/08 12:03:00;;;;;;;1.20;0.75;;;22.50;99.90;;;;;;4885527;29;20091;-80
2023/08/08 12:05:27;;;;;;;1.85;0.68;;;22.50;99.90;;;;;;4885859;29;20683;-81
2023/08/08 12:07:54;;;;;;;1.75;0.70;;;22.50;99.90;;;;;;4887001;29;20116;-81
2023/08/08 12:10:23;;;;;;;1.77;0.75;;;22.60;99.90;;;;;;4883529;29;20057;-81
2023/08/08 12:12:56;;;;;;;2.53;0.65;;;22.60;99.90;;;;;;4884129;29;20082;-81
2023/08/08 12:15:23;;;;;;;1.92;0.70;;;22.70;99.90;;;;;;4900230;29;20050;-81
2023/08/08 12:17:50;;;;;;;3.33;0.88;;;22.80;99.90;;;;;;4888796;29;20060;-82
2023/08/08 12:20:17;;;;;;;2.65;0.70;;;22.90;99.90;;;;;;4882194;29;20133;-83
2023/08/08 12:22:45;;;;;;;1.17;0.68;;;23.10;99.90;;;;;;4886407;29;20049;-82
2023/08/08 12:25:12;;;;;;;1.40;0.50;;;23.20;99.90;;;;;;4886342;29;20123;-82
2023/08/08 12:27:39;;;;;;;1.95;0.80;;;23.30;99.90;;;;;;4886515;29;20122;-82
2023/08/08 12:30:07;;;;;;;0.98;0.65;;;23.40;99.90;;;;;;4882283;29;20053;-82
2023/08/08 12:32:34;;;;;;;1.45;0.93;;;23.40;99.90;;;;;;4900255;29;20049;-82
2023/08/08 12:35:01;;;;;;;1.98;0.80;;;23.50;99.90;;;;;;4900744;29;20437;-83
2023/08/08 12:37:28;;;;;;;2.88;1.27;;;23.50;99.90;;;;;;4885602;29;20045;-82
2023/08/08 12:39:54;;;;;;;5.03;0.95;;;23.40;99.90;;;;;;4885201;29;20101;-83
2023/08/08 12:42:21;;;;;;;2.03;0.90;;;23.40;99.90;;;;;;4883976;29;20492;-82
2023/08/08 12:44:51;;;;;;;2.03;0.80;;;23.30;99.90;;;;;;4883121;29;20048;-82
2023/08/08 12:47:19;;;;;;;3.13;1.05;;;23.20;99.90;;;;;;4892879;29;20052;-80
2023/08/08 12:49:46;;;;;;;1.30;0.85;;;23.20;99.90;;;;;;4891023;29;20045;-82
2023/08/08 12:52:13;;;;;;;2.47;0.93;;;23.10;99.90;;;;;;4899354;29;20060;-82
2023/08/08 12:54:40;;;;;;;4.65;1.20;;;23.10;99.90;;;;;;4878609;29;20053;-82